createdAt,value
2023-03-06T00:00:55.022Z,85.79
2023-03-06T00:03:22.213Z,85.52
2023-03-06T00:05:49.012Z,86.02
2023-03-06T00:08:15.831Z,85.68
2023-03-06T00:10:42.946Z,85.98
2023-03-06T00:13:13.342Z,85.84
2023-03-06T00:15:39.897Z,86.18
2023-03-06T00:18:07.379Z,86.10
2023-03-06T00:20:34.994Z,86.44
2023-03-06T00:23:03.037Z,86.46
2023-03-06T00:25:29.512Z,87.04
2023-03-06T00:27:56.183Z,87.07
2023-03-06T00:30:24.852Z,87.25
2023-03-06T00:32:53.075Z,87.29
2023-03-06T00:35:20.080Z,87.27
2023-03-06T00:37:47.173Z,87.43
2023-03-06T00:40:17.499Z,87.54
2023-03-06T00:42:44.271Z,88.08
2023-03-06T00:45:11.376Z,88.04
2023-03-06T00:47:38.959Z,87.45
2023-03-06T00:50:06.079Z,87.62
2023-03-06T00:52:32.525Z,87.87
2023-03-06T00:54:59.044Z,87.57
2023-03-06T00:57:25.675Z,87.86
2023-03-06T00:59:52.101Z,87.74
2023-03-06T01:02:21.451Z,87.42
2023-03-06T01:04:48.476Z,87.78
2023-03-06T01:07:15.059Z,88.42
2023-03-06T01:09:41.967Z,87.46
2023-03-06T01:12:08.691Z,87.76
2023-03-06T01:14:35.293Z,88.00
2023-03-06T01:17:02.400Z,87.56
2023-03-06T01:19:28.826Z,87.44
2023-03-06T01:21:55.322Z,87.94
2023-03-06T01:24:23.994Z,88.07
2023-03-06T01:26:50.524Z,88.73
2023-03-06T01:29:17.296Z,88.76
2023-03-06T01:31:44.022Z,88.51
2023-03-06T01:34:10.435Z,88.22
2023-03-06T01:36:37.244Z,88.26
2023-03-06T01:39:04.136Z,88.87
2023-03-06T01:41:32.518Z,88.08
2023-03-06T01:43:58.953Z,88.95
2023-03-06T01:46:28.270Z,88.41
2023-03-06T01:48:57.002Z,89.43
2023-03-06T01:51:27.175Z,89.33
2023-03-06T01:53:54.993Z,89.07
2023-03-06T01:56:21.929Z,89.27
2023-03-06T01:58:50.015Z,89.60
2023-03-06T02:01:17.878Z,90.22
2023-03-06T02:03:46.099Z,89.51
2023-03-06T02:06:13.465Z,89.56
2023-03-06T02:08:40.160Z,90.74
2023-03-06T02:11:22.505Z,89.94
2023-03-06T02:13:51.478Z,90.21
2023-03-06T02:16:22.181Z,89.77
2023-03-06T02:18:49.454Z,89.29
2023-03-06T02:21:22.506Z,90.23
2023-03-06T02:24:00.605Z,90.22
2023-03-06T02:26:28.566Z,89.82
2023-03-06T02:28:57.232Z,89.42
2023-03-06T02:31:27.892Z,89.48
2023-03-06T02:34:14.003Z,89.15
2023-03-06T02:36:48.906Z,89.90
2023-03-06T02:39:18.665Z,89.34
2023-03-06T02:41:45.310Z,89.51
2023-03-06T02:44:13.700Z,90.38
2023-03-06T02:46:40.137Z,90.26
2023-03-06T02:49:06.538Z,90.51
2023-03-06T02:51:34.228Z,90.13
2023-03-06T02:54:00.840Z,90.96
2023-03-06T02:56:27.358Z,91.97
2023-03-06T02:58:54.050Z,91.86
2023-03-06T03:01:20.905Z,92.18
2023-03-06T03:03:48.078Z,92.58
2023-03-06T03:06:15.284Z,91.89
2023-03-06T03:08:42.774Z,92.39
2023-03-06T03:11:09.727Z,91.89
2023-03-06T03:13:39.504Z,91.58
2023-03-06T03:16:13.925Z,91.47
2023-03-06T03:18:40.695Z,91.67
2023-03-06T03:21:08.949Z,91.26
2023-03-06T03:23:35.449Z,90.92
2023-03-06T03:26:20.512Z,91.14
2023-03-06T03:28:53.832Z,91.41
2023-03-06T03:31:21.996Z,91.12
2023-03-06T03:33:49.562Z,91.28
2023-03-06T03:36:17.775Z,90.74
2023-03-06T03:38:46.629Z,91.33
2023-03-06T03:41:14.125Z,91.63
2023-03-06T03:43:42.590Z,92.05
2023-03-06T03:46:09.480Z,93.21
2023-03-06T03:48:36.352Z,92.37
2023-03-06T03:51:12.278Z,92.14
2023-03-06T03:53:44.312Z,92.56
2023-03-06T03:56:13.361Z,92.41
2023-03-06T03:58:48.861Z,91.62
2023-03-06T04:01:17.522Z,92.03
2023-03-06T04:03:45.260Z,92.39
2023-03-06T04:06:13.598Z,92.37
2023-03-06T04:08:40.269Z,92.22
2023-03-06T04:11:07.002Z,92.69
2023-03-06T04:13:33.423Z,92.72
2023-03-06T04:16:00.242Z,93.51
2023-03-06T04:18:29.357Z,93.32
2023-03-06T04:20:59.768Z,93.41
2023-03-06T04:23:27.814Z,92.84
2023-03-06T04:25:54.629Z,93.08
2023-03-06T04:28:21.963Z,93.32
2023-03-06T04:30:49.058Z,92.95
2023-03-06T04:33:15.582Z,93.31
2023-03-06T04:35:43.348Z,93.06
2023-03-06T04:38:15.085Z,93.35
2023-03-06T04:40:43.896Z,93.99
2023-03-06T04:43:11.391Z,93.36
2023-03-06T04:45:37.867Z,93.70
2023-03-06T04:48:05.280Z,94.13
2023-03-06T04:50:32.544Z,93.62
2023-03-06T04:53:02.227Z,94.05
2023-03-06T04:55:29.164Z,94.01
2023-03-06T04:57:56.750Z,94.50
2023-03-06T05:00:30.208Z,94.32
2023-03-06T05:02:58.578Z,94.87
2023-03-06T05:05:25.742Z,94.46
2023-03-06T05:07:53.419Z,95.31
2023-03-06T05:10:20.430Z,94.75
2023-03-06T05:12:47.082Z,95.04
2023-03-06T05:15:14.487Z,95.21
2023-03-06T05:17:41.344Z,95.46
2023-03-06T05:20:09.655Z,96.07
2023-03-06T05:22:36.476Z,95.73
2023-03-06T05:25:04.776Z,95.85
2023-03-06T05:27:31.257Z,95.65
2023-03-06T05:29:57.986Z,96.11
2023-03-06T05:32:24.593Z,96.43
2023-03-06T05:34:51.714Z,96.23
2023-03-06T05:37:18.102Z,96.22
2023-03-06T05:39:44.761Z,96.59
2023-03-06T05:42:11.257Z,96.59
2023-03-06T05:44:37.884Z,96.92
2023-03-06T05:47:04.759Z,97.28
2023-03-06T05:49:33.627Z,97.50
2023-03-06T05:52:00.819Z,97.34
2023-03-06T05:54:27.291Z,96.66
2023-03-06T05:56:53.821Z,96.88
2023-03-06T05:59:20.401Z,96.48
2023-03-06T06:01:47.030Z,97.16
2023-03-06T06:04:13.451Z,97.16
2023-03-06T06:06:39.889Z,97.40
2023-03-06T06:09:06.294Z,97.90
2023-03-06T06:11:32.688Z,98.07
2023-03-06T06:13:59.067Z,97.84
2023-03-06T06:16:25.527Z,97.94
2023-03-06T06:18:51.989Z,97.76
2023-03-06T06:21:18.355Z,97.64
2023-03-06T06:23:44.815Z,97.70
2023-03-06T06:26:11.328Z,98.22
2023-03-06T06:28:37.785Z,97.76
2023-03-06T06:31:12.185Z,98.08
2023-03-06T06:33:39.376Z,97.09
2023-03-06T06:36:06.036Z,97.06
2023-03-06T06:38:32.718Z,97.61
2023-03-06T06:41:31.056Z,98.13
2023-03-06T06:43:45.487Z,97.13
2023-03-06T06:46:47.123Z,97.12
2023-03-06T06:48:59.950Z,97.38
2023-03-06T06:51:27.322Z,97.55
2023-03-06T06:53:53.731Z,97.73
2023-03-06T06:56:20.324Z,97.57
2023-03-06T06:58:46.885Z,97.55
2023-03-06T07:01:13.589Z,97.93
2023-03-06T07:03:40.886Z,98.38
2023-03-06T07:06:07.974Z,99.29
2023-03-06T07:08:34.753Z,99.72
2023-03-06T07:11:12.508Z,99.07
2023-03-06T07:13:38.977Z,99.20
2023-03-06T07:16:05.974Z,98.88
2023-03-06T07:18:32.486Z,98.41
2023-03-06T07:21:01.297Z,99.31
2023-03-06T07:23:27.914Z,99.24
2023-03-06T07:25:55.133Z,99.85
2023-03-06T07:28:22.027Z,100.00
2023-03-06T07:30:48.464Z,100.00
2023-03-06T07:33:16.710Z,100.00
2023-03-06T07:35:44.183Z,100.00
2023-03-06T07:38:11.349Z,100.00
2023-03-06T07:40:38.851Z,100.00
2023-03-06T07:43:18.727Z,100.00
2023-03-06T07:45:58.961Z,100.00
2023-03-06T07:48:26.755Z,100.00
2023-03-06T07:51:02.186Z,100.00
2023-03-06T07:53:29.704Z,100.00
2023-03-06T07:55:56.408Z,100.00
2023-03-06T07:58:23.716Z,100.00
2023-03-06T08:00:50.364Z,100.00
2023-03-06T08:03:18.149Z,100.00
2023-03-06T08:05:44.837Z,100.00
2023-03-06T08:08:11.325Z,100.00
2023-03-06T08:10:37.748Z,100.00
2023-03-06T08:13:04.766Z,100.00
2023-03-06T08:15:31.198Z,100.00
2023-03-06T08:17:57.632Z,100.00
2023-03-06T08:20:24.219Z,100.00
2023-03-06T08:22:50.779Z,100.00
2023-03-06T08:25:17.509Z,100.00
2023-03-06T08:27:43.938Z,100.00
2023-03-06T08:30:10.868Z,100.00
2023-03-06T08:32:37.738Z,100.00
2023-03-06T08:35:05.615Z,100.00
2023-03-06T08:37:32.037Z,100.00
2023-03-06T08:39:58.854Z,100.00
2023-03-06T08:42:25.281Z,100.00
2023-03-06T08:44:51.900Z,100.00
2023-03-06T08:47:18.365Z,100.00
2023-03-06T08:49:44.851Z,100.00
2023-03-06T08:52:11.309Z,100.00
2023-03-06T08:54:39.096Z,100.00
2023-03-06T08:57:06.679Z,100.00
2023-03-06T08:59:33.129Z,100.00
2023-03-06T09:01:59.755Z,100.00
2023-03-06T09:04:26.871Z,100.00
2023-03-06T09:06:55.472Z,100.00
2023-03-06T09:09:22.210Z,100.00
2023-03-06T09:11:48.764Z,100.00
2023-03-06T09:14:15.277Z,100.00
2023-03-06T09:16:41.845Z,100.00
2023-03-06T09:19:08.307Z,100.00
2023-03-06T09:21:34.709Z,100.00
2023-03-06T09:24:01.307Z,100.00
2023-03-06T09:26:43.377Z,100.00
2023-03-06T09:29:12.498Z,100.00
2023-03-06T09:31:38.951Z,100.00
2023-03-06T09:34:05.635Z,100.00
2023-03-06T09:36:40.143Z,100.00
2023-03-06T09:39:12.433Z,100.00
2023-03-06T09:41:41.948Z,100.00
2023-03-06T09:44:22.641Z,100.00
2023-03-06T09:47:34.563Z,100.00
2023-03-06T09:50:24.057Z,100.00
2023-03-06T09:53:18.543Z,100.00
2023-03-06T09:56:03.249Z,100.00
2023-03-06T09:58:32.570Z,100.00
2023-03-06T10:01:23.629Z,100.00
2023-03-06T10:04:01.298Z,100.00
2023-03-06T10:06:43.386Z,100.00
2023-03-06T10:09:48.352Z,100.00
2023-03-06T10:12:18.082Z,100.00
2023-03-06T10:14:49.084Z,100.00
2023-03-06T10:17:19.139Z,100.00
2023-03-06T10:19:47.796Z,100.00
2023-03-06T10:22:23.592Z,100.00
2023-03-06T10:25:28.528Z,99.08
2023-03-06T10:28:15.175Z,98.56
2023-03-06T10:30:53.832Z,96.94
2023-03-06T10:33:55.775Z,97.10
2023-03-06T10:36:27.175Z,97.22
2023-03-06T10:38:55.801Z,97.61
2023-03-06T10:41:28.308Z,96.69
2023-03-06T10:44:02.704Z,94.12
2023-03-06T10:46:34.676Z,94.03
2023-03-06T10:52:22.373Z,91.95
2023-03-06T10:54:48.943Z,91.87
2023-03-06T10:57:27.706Z,93.08
2023-03-06T10:59:55.632Z,93.10
2023-03-06T11:02:28.245Z,92.09
2023-03-06T11:04:59.042Z,91.40
2023-03-06T11:07:28.599Z,90.98
2023-03-06T11:09:57.946Z,90.91
2023-03-06T11:12:43.532Z,90.80
2023-03-06T11:15:21.313Z,91.16
2023-03-06T11:18:14.668Z,90.00
2023-03-06T11:20:51.888Z,90.03
2023-03-06T11:23:38.301Z,89.57
2023-03-06T11:26:17.097Z,88.78
2023-03-06T11:29:02.506Z,88.59
2023-03-06T11:31:35.002Z,89.20
2023-03-06T11:34:30.932Z,89.25
2023-03-06T11:37:06.342Z,89.13
2023-03-06T11:39:39.384Z,88.33
2023-03-06T11:42:20.025Z,86.42
2023-03-06T11:44:57.386Z,85.57
2023-03-06T11:47:28.793Z,85.01
2023-03-06T11:50:20.150Z,84.43
2023-03-06T11:52:57.348Z,83.58
2023-03-06T11:55:43.936Z,83.05
2023-03-06T11:58:28.954Z,79.88
2023-03-06T12:01:24.412Z,80.37
2023-03-06T12:04:06.928Z,78.94
2023-03-06T12:06:52.137Z,77.01
2023-03-06T12:09:25.123Z,77.30
2023-03-06T12:12:10.391Z,77.31
2023-03-06T12:15:01.764Z,76.14
2023-03-06T12:17:46.835Z,76.18
2023-03-06T12:20:23.914Z,75.61
2023-03-06T12:23:14.825Z,72.92
2023-03-06T12:25:49.228Z,72.26
2023-03-06T12:28:36.660Z,72.27
2023-03-06T12:31:33.597Z,72.10
2023-03-06T12:34:13.995Z,73.78
2023-03-06T12:37:19.513Z,71.57
2023-03-06T12:40:02.764Z,70.27
2023-03-06T12:42:44.404Z,68.89
2023-03-06T12:45:30.647Z,65.30
2023-03-06T12:47:58.418Z,65.47
2023-03-06T12:50:38.278Z,64.82
2023-03-06T12:53:12.341Z,64.26
2023-03-06T12:55:42.224Z,65.21
2023-03-06T12:58:34.489Z,65.99
2023-03-06T13:01:25.592Z,67.24
2023-03-06T13:04:10.876Z,67.10
2023-03-06T13:06:56.114Z,66.49
2023-03-06T13:09:38.881Z,65.74
2023-03-06T13:12:13.744Z,64.81
2023-03-06T13:14:48.740Z,66.20
2023-03-06T13:17:20.521Z,64.97
2023-03-06T13:19:48.134Z,64.68
2023-03-06T13:22:27.330Z,65.30
2023-03-06T13:25:18.812Z,65.71
2023-03-06T13:27:54.059Z,66.70
2023-03-06T13:30:35.659Z,65.81
2023-03-06T13:33:22.708Z,64.48
2023-03-06T13:35:57.156Z,64.74
2023-03-06T13:38:34.049Z,60.98
2023-03-06T13:41:27.368Z,61.15
2023-03-06T13:43:58.588Z,59.58
2023-03-06T13:46:30.923Z,60.36
2023-03-06T13:49:09.342Z,61.34
2023-03-06T13:51:38.166Z,59.68
2023-03-06T13:54:08.562Z,57.20
2023-03-06T13:56:54.013Z,58.43
2023-03-06T13:59:31.005Z,58.60
2023-03-06T14:02:22.397Z,58.39
2023-03-06T14:04:57.773Z,58.88
2023-03-06T14:07:30.137Z,58.26
2023-03-06T14:10:13.188Z,59.40
2023-03-06T14:12:51.519Z,59.09
2023-03-06T14:15:35.903Z,57.54
2023-03-06T14:18:07.015Z,58.64
2023-03-06T14:20:44.893Z,58.94
2023-03-06T14:23:28.294Z,59.18
2023-03-06T14:26:00.537Z,58.92
2023-03-06T14:28:29.461Z,58.36
2023-03-06T14:30:57.823Z,57.77
2023-03-06T14:33:41.751Z,57.61
2023-03-06T14:36:14.776Z,57.91
2023-03-06T14:38:47.915Z,57.89
2023-03-06T14:41:23.648Z,59.00
2023-03-06T14:43:50.261Z,58.78
2023-03-06T14:46:20.876Z,58.90
2023-03-06T14:48:49.304Z,58.91
2023-03-06T14:51:19.971Z,59.26
2023-03-06T14:53:49.182Z,59.09
2023-03-06T14:56:19.091Z,58.81
2023-03-06T14:58:54.074Z,57.72
2023-03-06T15:01:29.864Z,59.22
2023-03-06T15:03:59.557Z,58.96
2023-03-06T15:06:39.912Z,58.40
2023-03-06T15:09:25.282Z,59.19
2023-03-06T15:11:57.802Z,60.35
2023-03-06T15:14:31.977Z,60.87
2023-03-06T15:17:18.669Z,60.80
2023-03-06T15:19:47.381Z,61.23
2023-03-06T15:22:50.964Z,61.07
2023-03-06T15:25:26.722Z,61.43
2023-03-06T15:28:18.310Z,60.64
2023-03-06T15:31:01.463Z,60.05
2023-03-06T15:33:27.911Z,60.88
2023-03-06T15:36:01.995Z,61.60
2023-03-06T15:38:36.704Z,62.02
2023-03-06T15:41:05.200Z,62.38
2023-03-06T15:43:37.067Z,62.72
2023-03-06T15:46:05.876Z,61.93
2023-03-06T15:48:35.187Z,61.85
2023-03-06T15:51:03.072Z,62.42
2023-03-06T15:53:29.940Z,62.84
2023-03-06T15:55:59.002Z,63.28
2023-03-06T15:58:30.804Z,63.49
2023-03-06T16:00:57.249Z,63.51
2023-03-06T16:03:23.747Z,63.54
2023-03-06T16:05:50.695Z,62.82
2023-03-06T16:08:17.286Z,63.36
2023-03-06T16:10:45.061Z,64.22
2023-03-06T16:13:16.177Z,63.71
2023-03-06T16:15:48.518Z,63.29
2023-03-06T16:18:15.714Z,64.07
2023-03-06T16:20:42.273Z,64.02
2023-03-06T16:23:12.243Z,64.62
2023-03-06T16:25:41.383Z,63.91
2023-03-06T16:28:16.390Z,64.76
2023-03-06T16:30:44.501Z,64.20
2023-03-06T16:33:12.649Z,64.19
2023-03-06T16:35:39.815Z,64.57
2023-03-06T16:38:06.683Z,65.10
2023-03-06T16:40:37.501Z,64.59
2023-03-06T16:43:05.322Z,65.47
2023-03-06T16:45:36.027Z,65.72
2023-03-06T16:48:02.991Z,65.66
2023-03-06T16:50:32.298Z,66.09
2023-03-06T16:52:59.235Z,66.39
2023-03-06T16:55:27.018Z,66.83
2023-03-06T16:57:54.334Z,66.94
2023-03-06T17:00:22.327Z,66.95
2023-03-06T17:02:50.401Z,67.22
2023-03-06T17:05:18.184Z,67.33
2023-03-06T17:07:44.829Z,67.29
2023-03-06T17:10:14.673Z,67.43
2023-03-06T17:12:42.290Z,67.91
2023-03-06T17:15:09.672Z,68.04
2023-03-06T17:17:36.051Z,68.16
2023-03-06T17:20:03.735Z,68.66
2023-03-06T17:22:33.023Z,68.57
2023-03-06T17:25:02.740Z,68.80
2023-03-06T17:27:29.996Z,69.28
2023-03-06T17:29:57.788Z,69.26
2023-03-06T17:32:24.208Z,69.57
2023-03-06T17:34:50.937Z,69.91
2023-03-06T17:37:17.624Z,69.77
2023-03-06T17:39:44.111Z,70.04
2023-03-06T17:42:10.655Z,70.25
2023-03-06T17:44:37.744Z,70.39
2023-03-06T17:47:05.314Z,70.74
2023-03-06T17:49:31.849Z,70.72
2023-03-06T17:52:04.686Z,71.07
2023-03-06T17:54:33.100Z,71.31
2023-03-06T17:57:01.976Z,71.56
2023-03-06T17:59:28.822Z,71.62
2023-03-06T18:01:58.972Z,71.73
2023-03-06T18:04:26.416Z,71.70
2023-03-06T18:06:53.017Z,72.44
2023-03-06T18:09:19.715Z,72.53
2023-03-06T18:11:46.348Z,73.00
2023-03-06T18:14:12.809Z,73.01
2023-03-06T18:16:39.238Z,73.59
2023-03-06T18:19:05.704Z,73.74
2023-03-06T18:21:32.149Z,74.07
2023-03-06T18:23:58.837Z,74.24
2023-03-06T18:26:28.153Z,74.51
2023-03-06T18:28:57.313Z,74.41
2023-03-06T18:31:28.394Z,74.68
2023-03-06T18:33:57.843Z,75.02
2023-03-06T18:36:26.127Z,75.39
2023-03-06T18:38:53.099Z,75.47
2023-03-06T18:41:21.241Z,75.86
2023-03-06T18:43:55.317Z,75.93
2023-03-06T18:46:22.755Z,76.33
2023-03-06T18:48:49.260Z,75.90
2023-03-06T18:51:16.523Z,76.20
2023-03-06T18:53:43.548Z,76.67
2023-03-06T18:56:16.599Z,76.61
2023-03-06T18:58:43.808Z,76.83
2023-03-06T19:01:10.485Z,77.55
2023-03-06T19:03:37.087Z,77.42
2023-03-06T19:06:06.132Z,77.80
2023-03-06T19:08:32.660Z,77.54
2023-03-06T19:11:06.687Z,77.90
2023-03-06T19:13:33.123Z,77.95
2023-03-06T19:16:00.355Z,78.30
2023-03-06T19:18:28.943Z,78.48
2023-03-06T19:20:56.547Z,78.67
2023-03-06T19:23:23.237Z,78.80
2023-03-06T19:25:59.743Z,78.50
2023-03-06T19:28:26.836Z,78.71
2023-03-06T19:30:53.248Z,78.86
2023-03-06T19:33:20.066Z,79.10
2023-03-06T19:35:46.767Z,79.66
2023-03-06T19:38:13.969Z,79.72
2023-03-06T19:40:40.716Z,79.82
2023-03-06T19:43:07.107Z,79.56
2023-03-06T19:45:33.568Z,80.20
2023-03-06T19:48:00.896Z,80.42
2023-03-06T19:50:30.763Z,80.42
2023-03-06T19:52:58.524Z,80.55
2023-03-06T19:55:26.264Z,80.65
2023-03-06T19:57:53.758Z,80.48
2023-03-06T20:00:20.765Z,80.51
2023-03-06T20:02:47.211Z,80.29
2023-03-06T20:05:13.693Z,80.78
2023-03-06T20:07:40.132Z,80.86
2023-03-06T20:10:07.085Z,80.89
2023-03-06T20:12:33.856Z,81.05
2023-03-06T20:15:00.322Z,80.78
2023-03-06T20:17:26.843Z,81.22
2023-03-06T20:19:53.497Z,81.18
2023-03-06T20:22:21.131Z,81.16
2023-03-06T20:24:47.797Z,82.04
2023-03-06T20:27:14.338Z,81.81
2023-03-06T20:29:44.553Z,81.75
2023-03-06T20:32:12.993Z,81.86
2023-03-06T20:34:40.102Z,81.83
2023-03-06T20:37:10.119Z,81.97
2023-03-06T20:39:37.391Z,81.25
2023-03-06T20:42:04.814Z,82.12
2023-03-06T20:44:31.802Z,82.09
2023-03-06T20:46:58.215Z,81.61
2023-03-06T20:49:27.259Z,81.74
2023-03-06T20:51:53.909Z,81.26
2023-03-06T20:54:20.546Z,82.08
2023-03-06T20:56:48.942Z,82.20
2023-03-06T20:59:15.868Z,81.92
2023-03-06T21:01:44.235Z,81.69
2023-03-06T21:04:13.897Z,82.56
2023-03-06T21:06:43.457Z,82.66
2023-03-06T21:09:10.308Z,82.23
2023-03-06T21:11:36.738Z,82.88
2023-03-06T21:14:05.284Z,83.79
2023-03-06T21:16:31.843Z,83.48
2023-03-06T21:18:59.896Z,83.62
2023-03-06T21:21:29.470Z,84.91
2023-03-06T21:23:55.948Z,84.92
2023-03-06T21:26:25.502Z,85.10
2023-03-06T21:28:52.591Z,85.33
2023-03-06T21:31:21.544Z,86.33
2023-03-06T21:33:51.835Z,86.60
2023-03-06T21:36:21.416Z,86.66
2023-03-06T21:38:51.428Z,87.24
2023-03-06T21:41:21.015Z,87.91
2023-03-06T21:43:47.614Z,88.05
2023-03-06T21:46:14.455Z,88.68
2023-03-06T21:48:41.266Z,88.25
2023-03-06T21:51:11.363Z,89.23
2023-03-06T21:53:38.426Z,88.85
2023-03-06T21:56:05.456Z,89.50
2023-03-06T21:58:32.338Z,88.52
2023-03-06T22:00:59.165Z,89.37
2023-03-06T22:03:26.050Z,90.58
2023-03-06T22:05:52.871Z,90.62
2023-03-06T22:08:28.005Z,91.29
2023-03-06T22:10:54.506Z,91.75
2023-03-06T22:13:22.096Z,92.11
2023-03-06T22:15:50.142Z,91.75
2023-03-06T22:18:16.734Z,92.63
2023-03-06T22:20:43.141Z,91.76
2023-03-06T22:23:09.610Z,92.33
2023-03-06T22:25:36.012Z,91.96
2023-03-06T22:28:02.820Z,92.37
2023-03-06T22:30:29.216Z,93.00
2023-03-06T22:32:55.890Z,93.71
2023-03-06T22:35:22.361Z,93.54
2023-03-06T22:37:49.074Z,93.31
2023-03-06T22:40:15.804Z,93.63
2023-03-06T22:42:42.212Z,93.86
2023-03-06T22:45:09.739Z,94.10
2023-03-06T22:47:36.891Z,94.32
2023-03-06T22:50:05.204Z,94.41
2023-03-06T22:52:33.059Z,94.14
2023-03-06T22:54:59.484Z,93.78
2023-03-06T22:57:25.902Z,93.08
2023-03-06T22:59:52.363Z,92.84
2023-03-06T23:02:19.212Z,92.58
2023-03-06T23:04:52.242Z,93.07
2023-03-06T23:07:20.548Z,92.84
2023-03-06T23:09:47.918Z,92.18
2023-03-06T23:12:32.948Z,92.28
2023-03-06T23:15:20.506Z,92.16
2023-03-06T23:18:05.503Z,91.62
2023-03-06T23:20:50.470Z,92.13
2023-03-06T23:23:36.704Z,91.16
2023-03-06T23:26:05.591Z,92.21
2023-03-06T23:28:32.263Z,92.19
2023-03-06T23:30:58.753Z,92.18
2023-03-06T23:33:25.228Z,91.60
2023-03-06T23:35:51.796Z,91.44
2023-03-06T23:38:18.414Z,90.93
2023-03-06T23:40:45.016Z,90.73
2023-03-06T23:43:11.514Z,90.85
2023-03-06T23:45:37.992Z,91.26
2023-03-06T23:48:07.842Z,90.82
2023-03-06T23:50:34.250Z,91.09
2023-03-06T23:53:00.719Z,91.56
2023-03-06T23:55:27.230Z,91.25
2023-03-06T23:57:53.660Z,91.40
